Terminal Aerodrome Forecast
Issued by NWS Wilmington, OH

Current Version | Previous Version | Graphics & Text | Print | Product List | Glossary On
Versions: 1 2 3 4 5 6 7 8 9 10 11 12 13 14 15 16 17 18 19 20 21 22 23 24 25 26
000
FTUS41 KILN 251503 AAA
TAFCVG
TAF AMD
KCVG 251503Z 2515/2618 18006KT P6SM VCSH BKN060
     FM251700 17011KT P6SM SCT070
     FM260100 19005KT P6SM BKN150
     FM261200 19007KT P6SM SCT050=

USA.gov is the U.S. government's official web portal to all federal, state and local government web resources and services.